sensor_id;sensor_type;location;lat;lon;timestamp;pressure;altitude;pressure_sealevel;temperature
69007;BMP180;56061;51.748;19.620;2022-07-06T00:02:19;99117.80;;;16.42
69007;BMP180;56061;51.748;19.620;2022-07-06T00:04:46;99122.60;;;16.40
69007;BMP180;56061;51.748;19.620;2022-07-06T00:07:13;99124.40;;;16.40
69007;BMP180;56061;51.748;19.620;2022-07-06T00:09:41;99124.80;;;16.40
69007;BMP180;56061;51.748;19.620;2022-07-06T00:12:08;99126.40;;;16.34
69007;BMP180;56061;51.748;19.620;2022-07-06T00:14:35;99127.60;;;16.36
69007;BMP180;56061;51.748;19.620;2022-07-06T00:17:02;99129.20;;;16.40
69007;BMP180;56061;51.748;19.620;2022-07-06T00:19:29;99129.40;;;16.40
69007;BMP180;56061;51.748;19.620;2022-07-06T00:21:56;99125.80;;;16.40
69007;BMP180;56061;51.748;19.620;2022-07-06T00:24:22;99125.80;;;16.50
69007;BMP180;56061;51.748;19.620;2022-07-06T00:26:49;99121.40;;;16.40
69007;BMP180;56061;51.748;19.620;2022-07-06T00:29:15;99120.60;;;16.36
69007;BMP180;56061;51.748;19.620;2022-07-06T00:31:42;99118.60;;;16.40
69007;BMP180;56061;51.748;19.620;2022-07-06T00:34:09;99123.00;;;16.40
69007;BMP180;56061;51.748;19.620;2022-07-06T00:36:35;99117.20;;;16.40
69007;BMP180;56061;51.748;19.620;2022-07-06T00:39:02;99110.60;;;16.40
69007;BMP180;56061;51.748;19.620;2022-07-06T00:41:28;99105.80;;;16.40
69007;BMP180;56061;51.748;19.620;2022-07-06T00:43:56;99102.80;;;16.38
69007;BMP180;56061;51.748;19.620;2022-07-06T00:46:31;99099.80;;;16.40
69007;BMP180;56061;51.748;19.620;2022-07-06T00:48:58;99095.80;;;16.40
69007;BMP180;56061;51.748;19.620;2022-07-06T00:51:30;99095.20;;;16.30
69007;BMP180;56061;51.748;19.620;2022-07-06T00:54:04;99090.80;;;16.26
69007;BMP180;56061;51.748;19.620;2022-07-06T00:56:32;99099.60;;;16.20
69007;BMP180;56061;51.748;19.620;2022-07-06T00:59:02;99101.60;;;16.10
69007;BMP180;56061;51.748;19.620;2022-07-06T01:01:29;99100.40;;;16.10
69007;BMP180;56061;51.748;19.620;2022-07-06T01:03:56;99096.20;;;16.10
69007;BMP180;56061;51.748;19.620;2022-07-06T01:06:23;99088.80;;;16.10
69007;BMP180;56061;51.748;19.620;2022-07-06T01:08:50;99085.80;;;16.20
69007;BMP180;56061;51.748;19.620;2022-07-06T01:11:18;99074.80;;;16.20
69007;BMP180;56061;51.748;19.620;2022-07-06T01:13:47;99073.60;;;16.20
69007;BMP180;56061;51.748;19.620;2022-07-06T01:16:14;99068.60;;;16.28
69007;BMP180;56061;51.748;19.620;2022-07-06T01:18:41;99071.60;;;16.30
69007;BMP180;56061;51.748;19.620;2022-07-06T01:21:13;99076.80;;;16.24
69007;BMP180;56061;51.748;19.620;2022-07-06T01:23:46;99079.00;;;16.20
69007;BMP180;56061;51.748;19.620;2022-07-06T01:26:18;99078.00;;;16.20
69007;BMP180;56061;51.748;19.620;2022-07-06T01:28:48;99079.20;;;16.20
69007;BMP180;56061;51.748;19.620;2022-07-06T01:31:24;99085.40;;;16.10
69007;BMP180;56061;51.748;19.620;2022-07-06T01:33:54;99083.00;;;16.00
69007;BMP180;56061;51.748;19.620;2022-07-06T01:36:22;99079.20;;;16.02
69007;BMP180;56061;51.748;19.620;2022-07-06T01:38:55;99080.20;;;16.06
69007;BMP180;56061;51.748;19.620;2022-07-06T01:41:24;99081.80;;;16.10
69007;BMP180;56061;51.748;19.620;2022-07-06T01:43:51;99071.60;;;16.06
69007;BMP180;56061;51.748;19.620;2022-07-06T01:46:18;99071.20;;;16.02
69007;BMP180;56061;51.748;19.620;2022-07-06T01:48:46;99074.60;;;16.00
69007;BMP180;56061;51.748;19.620;2022-07-06T01:51:13;99073.20;;;16.00
69007;BMP180;56061;51.748;19.620;2022-07-06T01:53:40;99070.20;;;16.00
69007;BMP180;56061;51.748;19.620;2022-07-06T01:56:07;99071.20;;;15.92
69007;BMP180;56061;51.748;19.620;2022-07-06T01:58:34;99066.40;;;15.94
69007;BMP180;56061;51.748;19.620;2022-07-06T02:01:19;99068.40;;;16.00
69007;BMP180;56061;51.748;19.620;2022-07-06T02:03:47;99072.40;;;16.00
69007;BMP180;56061;51.748;19.620;2022-07-06T02:06:14;99066.80;;;16.00
69007;BMP180;56061;51.748;19.620;2022-07-06T02:08:42;99066.40;;;16.00
69007;BMP180;56061;51.748;19.620;2022-07-06T02:11:09;99065.80;;;15.94
69007;BMP180;56061;51.748;19.620;2022-07-06T02:13:41;99058.60;;;15.90
69007;BMP180;56061;51.748;19.620;2022-07-06T02:16:07;99065.60;;;15.90
69007;BMP180;56061;51.748;19.620;2022-07-06T02:18:34;99060.60;;;15.82
69007;BMP180;56061;51.748;19.620;2022-07-06T02:21:01;99063.60;;;15.80
69007;BMP180;56061;51.748;19.620;2022-07-06T02:23:28;99066.80;;;15.80
69007;BMP180;56061;51.748;19.620;2022-07-06T02:25:54;99066.20;;;15.80
69007;BMP180;56061;51.748;19.620;2022-07-06T02:28:21;99064.60;;;15.72
69007;BMP180;56061;51.748;19.620;2022-07-06T02:30:49;99063.20;;;15.70
69007;BMP180;56061;51.748;19.620;2022-07-06T02:33:15;99059.80;;;15.64
69007;BMP180;56061;51.748;19.620;2022-07-06T02:35:42;99068.40;;;15.50
69007;BMP180;56061;51.748;19.620;2022-07-06T02:38:10;99065.40;;;15.50
69007;BMP180;56061;51.748;19.620;2022-07-06T02:40:37;99068.40;;;15.50
69007;BMP180;56061;51.748;19.620;2022-07-06T02:43:04;99067.60;;;15.50
69007;BMP180;56061;51.748;19.620;2022-07-06T02:45:31;99062.60;;;15.50
69007;BMP180;56061;51.748;19.620;2022-07-06T02:47:58;99059.20;;;15.50
69007;BMP180;56061;51.748;19.620;2022-07-06T02:50:25;99062.40;;;15.50
69007;BMP180;56061;51.748;19.620;2022-07-06T02:52:52;99060.40;;;15.50
69007;BMP180;56061;51.748;19.620;2022-07-06T02:55:18;99056.00;;;15.40
69007;BMP180;56061;51.748;19.620;2022-07-06T02:57:45;99050.40;;;15.40
69007;BMP180;56061;51.748;19.620;2022-07-06T03:00:12;99049.40;;;15.40
69007;BMP180;56061;51.748;19.620;2022-07-06T03:02:39;99051.00;;;15.40
69007;BMP180;56061;51.748;19.620;2022-07-06T03:05:06;99053.00;;;15.40
69007;BMP180;56061;51.748;19.620;2022-07-06T03:07:33;99044.60;;;15.44
69007;BMP180;56061;51.748;19.620;2022-07-06T03:09:59;99048.60;;;15.48
69007;BMP180;56061;51.748;19.620;2022-07-06T03:12:26;99043.60;;;15.40
69007;BMP180;56061;51.748;19.620;2022-07-06T03:14:53;99048.00;;;15.40
69007;BMP180;56061;51.748;19.620;2022-07-06T03:17:19;99046.00;;;15.44
69007;BMP180;56061;51.748;19.620;2022-07-06T03:19:47;99050.00;;;15.50
69007;BMP180;56061;51.748;19.620;2022-07-06T03:22:14;99045.00;;;15.50
69007;BMP180;56061;51.748;19.620;2022-07-06T03:24:40;99047.00;;;15.50
69007;BMP180;56061;51.748;19.620;2022-07-06T03:27:07;99041.00;;;15.50
69007;BMP180;56061;51.748;19.620;2022-07-06T03:29:33;99037.20;;;15.42
69007;BMP180;56061;51.748;19.620;2022-07-06T03:32:00;99036.20;;;15.40
69007;BMP180;56061;51.748;19.620;2022-07-06T03:34:27;99035.00;;;15.40
69007;BMP180;56061;51.748;19.620;2022-07-06T03:36:54;99035.00;;;15.40
69007;BMP180;56061;51.748;19.620;2022-07-06T03:39:20;99037.80;;;15.40
69007;BMP180;56061;51.748;19.620;2022-07-06T03:41:47;99034.40;;;15.40
69007;BMP180;56061;51.748;19.620;2022-07-06T03:44:14;99029.00;;;15.40
69007;BMP180;56061;51.748;19.620;2022-07-06T03:46:41;99021.20;;;15.40
69007;BMP180;56061;51.748;19.620;2022-07-06T03:49:07;99027.80;;;15.40
69007;BMP180;56061;51.748;19.620;2022-07-06T03:51:34;99038.60;;;15.42
69007;BMP180;56061;51.748;19.620;2022-07-06T03:54:01;99038.00;;;15.40
69007;BMP180;56061;51.748;19.620;2022-07-06T03:56:27;99038.80;;;15.40
69007;BMP180;56061;51.748;19.620;2022-07-06T03:59:01;99035.40;;;15.50
69007;BMP180;56061;51.748;19.620;2022-07-06T04:01:28;99035.40;;;15.60
69007;BMP180;56061;51.748;19.620;2022-07-06T04:03:56;99034.40;;;15.70
69007;BMP180;56061;51.748;19.620;2022-07-06T04:06:23;99036.80;;;15.70
69007;BMP180;56061;51.748;19.620;2022-07-06T04:08:50;99037.40;;;15.78
69007;BMP180;56061;51.748;19.620;2022-07-06T04:11:17;99037.40;;;15.80
69007;BMP180;56061;51.748;19.620;2022-07-06T04:13:44;99039.00;;;15.80
69007;BMP180;56061;51.748;19.620;2022-07-06T04:16:10;99039.40;;;15.80
69007;BMP180;56061;51.748;19.620;2022-07-06T04:18:49;99037.20;;;15.80
69007;BMP180;56061;51.748;19.620;2022-07-06T04:21:16;99039.40;;;15.72
69007;BMP180;56061;51.748;19.620;2022-07-06T04:23:43;99037.00;;;15.80
69007;BMP180;56061;51.748;19.620;2022-07-06T04:26:10;99035.80;;;15.80
69007;BMP180;56061;51.748;19.620;2022-07-06T04:28:36;99037.80;;;15.80
69007;BMP180;56061;51.748;19.620;2022-07-06T04:31:06;99039.80;;;15.80
69007;BMP180;56061;51.748;19.620;2022-07-06T04:33:34;99033.60;;;15.82
69007;BMP180;56061;51.748;19.620;2022-07-06T04:36:01;99033.60;;;15.90
69007;BMP180;56061;51.748;19.620;2022-07-06T04:38:27;99038.20;;;15.90
69007;BMP180;56061;51.748;19.620;2022-07-06T04:40:54;99039.00;;;15.90
69007;BMP180;56061;51.748;19.620;2022-07-06T04:43:20;99035.60;;;15.90
69007;BMP180;56061;51.748;19.620;2022-07-06T04:45:56;99038.40;;;15.90
69007;BMP180;56061;51.748;19.620;2022-07-06T04:48:22;99039.80;;;15.94
69007;BMP180;56061;51.748;19.620;2022-07-06T04:50:50;99037.40;;;16.00
69007;BMP180;56061;51.748;19.620;2022-07-06T04:53:16;99040.00;;;16.00
69007;BMP180;56061;51.748;19.620;2022-07-06T04:55:43;99042.40;;;16.00
69007;BMP180;56061;51.748;19.620;2022-07-06T04:58:15;99045.60;;;15.90
69007;BMP180;56061;51.748;19.620;2022-07-06T05:00:42;99045.00;;;16.00
69007;BMP180;56061;51.748;19.620;2022-07-06T05:03:08;99049.40;;;16.00
69007;BMP180;56061;51.748;19.620;2022-07-06T05:05:35;99048.40;;;16.10
69007;BMP180;56061;51.748;19.620;2022-07-06T05:08:02;99051.40;;;16.10
69007;BMP180;56061;51.748;19.620;2022-07-06T05:10:39;99051.60;;;16.18
69007;BMP180;56061;51.748;19.620;2022-07-06T05:13:05;99057.60;;;16.20
69007;BMP180;56061;51.748;19.620;2022-07-06T05:15:32;99062.40;;;16.20
69007;BMP180;56061;51.748;19.620;2022-07-06T05:18:04;99058.00;;;16.20
69007;BMP180;56061;51.748;19.620;2022-07-06T05:20:31;99060.40;;;16.20
69007;BMP180;56061;51.748;19.620;2022-07-06T05:23:01;99057.40;;;16.20
69007;BMP180;56061;51.748;19.620;2022-07-06T05:25:27;99058.80;;;16.20
69007;BMP180;56061;51.748;19.620;2022-07-06T05:27:54;99057.60;;;16.26
69007;BMP180;56061;51.748;19.620;2022-07-06T05:30:31;99063.40;;;16.30
69007;BMP180;56061;51.748;19.620;2022-07-06T05:33:12;99064.40;;;16.34
69007;BMP180;56061;51.748;19.620;2022-07-06T05:35:38;99067.40;;;16.40
69007;BMP180;56061;51.748;19.620;2022-07-06T05:38:20;99073.40;;;16.30
69007;BMP180;56061;51.748;19.620;2022-07-06T05:40:47;99077.20;;;16.40
69007;BMP180;56061;51.748;19.620;2022-07-06T05:43:23;99083.20;;;16.50
69007;BMP180;56061;51.748;19.620;2022-07-06T05:45:50;99088.40;;;16.52
69007;BMP180;56061;51.748;19.620;2022-07-06T05:48:29;99094.80;;;16.60
69007;BMP180;56061;51.748;19.620;2022-07-06T05:51:22;99090.40;;;16.60
69007;BMP180;56061;51.748;19.620;2022-07-06T05:53:48;99092.20;;;16.64
69007;BMP180;56061;51.748;19.620;2022-07-06T05:56:21;99094.00;;;16.60
69007;BMP180;56061;51.748;19.620;2022-07-06T05:58:47;99093.20;;;16.60
69007;BMP180;56061;51.748;19.620;2022-07-06T06:01:14;99096.80;;;16.70
69007;BMP180;56061;51.748;19.620;2022-07-06T06:03:41;99096.40;;;16.80
69007;BMP180;56061;51.748;19.620;2022-07-06T06:06:07;99097.80;;;16.90
69007;BMP180;56061;51.748;19.620;2022-07-06T06:08:46;99097.60;;;17.00
69007;BMP180;56061;51.748;19.620;2022-07-06T06:11:12;99087.20;;;17.08
69007;BMP180;56061;51.748;19.620;2022-07-06T06:13:42;99095.00;;;17.10
69007;BMP180;56061;51.748;19.620;2022-07-06T06:16:09;99095.00;;;17.20
69007;BMP180;56061;51.748;19.620;2022-07-06T06:18:36;99100.20;;;17.20
69007;BMP180;56061;51.748;19.620;2022-07-06T06:21:09;99096.60;;;17.30
69007;BMP180;56061;51.748;19.620;2022-07-06T06:23:36;99097.00;;;17.40
69007;BMP180;56061;51.748;19.620;2022-07-06T06:26:08;99102.00;;;17.40
69007;BMP180;56061;51.748;19.620;2022-07-06T06:28:34;99108.60;;;17.50
69007;BMP180;56061;51.748;19.620;2022-07-06T06:31:23;99106.00;;;17.50
69007;BMP180;56061;51.748;19.620;2022-07-06T06:34:01;99103.00;;;17.50
69007;BMP180;56061;51.748;19.620;2022-07-06T06:36:28;99102.00;;;17.40
69007;BMP180;56061;51.748;19.620;2022-07-06T06:38:54;99102.60;;;17.40
69007;BMP180;56061;51.748;19.620;2022-07-06T06:41:38;99101.20;;;17.50
69007;BMP180;56061;51.748;19.620;2022-07-06T06:44:12;99104.20;;;17.60
69007;BMP180;56061;51.748;19.620;2022-07-06T06:46:41;99103.80;;;17.58
69007;BMP180;56061;51.748;19.620;2022-07-06T06:49:16;99104.60;;;17.56
69007;BMP180;56061;51.748;19.620;2022-07-06T06:51:46;99101.60;;;17.60
69007;BMP180;56061;51.748;19.620;2022-07-06T06:54:16;99100.20;;;17.60
69007;BMP180;56061;51.748;19.620;2022-07-06T06:56:42;99102.20;;;17.70
69007;BMP180;56061;51.748;19.620;2022-07-06T06:59:09;99100.00;;;17.80
69007;BMP180;56061;51.748;19.620;2022-07-06T07:01:44;99097.80;;;17.90
69007;BMP180;56061;51.748;19.620;2022-07-06T07:04:12;99095.20;;;18.04
69007;BMP180;56061;51.748;19.620;2022-07-06T07:06:43;99102.80;;;18.10
69007;BMP180;56061;51.748;19.620;2022-07-06T07:09:09;99100.80;;;18.20
69007;BMP180;56061;51.748;19.620;2022-07-06T07:11:39;99097.80;;;18.30
69007;BMP180;56061;51.748;19.620;2022-07-06T07:14:12;99096.00;;;18.34
69007;BMP180;56061;51.748;19.620;2022-07-06T07:16:41;99102.40;;;18.50
69007;BMP180;56061;51.748;19.620;2022-07-06T07:19:08;99100.20;;;18.70
69007;BMP180;56061;51.748;19.620;2022-07-06T07:21:35;99100.00;;;18.76
69007;BMP180;56061;51.748;19.620;2022-07-06T07:24:13;99104.80;;;18.80
69007;BMP180;56061;51.748;19.620;2022-07-06T07:26:40;99105.60;;;18.80
69007;BMP180;56061;51.748;19.620;2022-07-06T07:29:07;99104.00;;;18.90
69007;BMP180;56061;51.748;19.620;2022-07-06T07:31:33;99103.00;;;18.90
69007;BMP180;56061;51.748;19.620;2022-07-06T07:34:00;99102.20;;;19.00
69007;BMP180;56061;51.748;19.620;2022-07-06T07:36:30;99099.60;;;19.04
69007;BMP180;56061;51.748;19.620;2022-07-06T07:38:57;99097.80;;;19.10
69007;BMP180;56061;51.748;19.620;2022-07-06T07:41:34;99090.80;;;19.20
69007;BMP180;56061;51.748;19.620;2022-07-06T07:44:00;99089.40;;;19.30
69007;BMP180;56061;51.748;19.620;2022-07-06T07:46:27;99088.80;;;19.40
69007;BMP180;56061;51.748;19.620;2022-07-06T07:49:05;99084.80;;;19.50
69007;BMP180;56061;51.748;19.620;2022-07-06T07:51:34;99088.00;;;19.68
69007;BMP180;56061;51.748;19.620;2022-07-06T07:54:05;99094.00;;;19.80
69007;BMP180;56061;51.748;19.620;2022-07-06T07:56:32;99091.00;;;19.90
69007;BMP180;56061;51.748;19.620;2022-07-06T07:59:02;99089.20;;;20.20
69007;BMP180;56061;51.748;19.620;2022-07-06T08:01:30;99092.40;;;20.40
69007;BMP180;56061;51.748;19.620;2022-07-06T08:04:06;99100.20;;;20.60
69007;BMP180;56061;51.748;19.620;2022-07-06T08:06:33;99101.20;;;20.70
69007;BMP180;56061;51.748;19.620;2022-07-06T08:09:00;99097.60;;;20.80
69007;BMP180;56061;51.748;19.620;2022-07-06T08:11:36;99104.20;;;20.90
69007;BMP180;56061;51.748;19.620;2022-07-06T08:14:04;99107.00;;;21.00
69007;BMP180;56061;51.748;19.620;2022-07-06T08:16:34;99105.40;;;21.06
69007;BMP180;56061;51.748;19.620;2022-07-06T08:19:00;99109.60;;;21.06
69007;BMP180;56061;51.748;19.620;2022-07-06T08:21:44;99103.00;;;21.00
69007;BMP180;56061;51.748;19.620;2022-07-06T08:24:20;99107.80;;;21.00
69007;BMP180;56061;51.748;19.620;2022-07-06T08:26:48;99111.60;;;20.92
69007;BMP180;56061;51.748;19.620;2022-07-06T08:29:14;99117.20;;;20.98
69007;BMP180;56061;51.748;19.620;2022-07-06T08:31:47;99119.80;;;20.90
69007;BMP180;56061;51.748;19.620;2022-07-06T08:34:27;99117.80;;;20.90
69007;BMP180;56061;51.748;19.620;2022-07-06T08:36:59;99114.80;;;20.90
69007;BMP180;56061;51.748;19.620;2022-07-06T08:39:26;99117.60;;;21.00
69007;BMP180;56061;51.748;19.620;2022-07-06T08:42:09;99110.40;;;21.10
69007;BMP180;56061;51.748;19.620;2022-07-06T08:44:52;99113.80;;;21.20
69007;BMP180;56061;51.748;19.620;2022-07-06T08:47:41;99110.80;;;21.34
69007;BMP180;56061;51.748;19.620;2022-07-06T08:50:08;99105.20;;;21.50
69007;BMP180;56061;51.748;19.620;2022-07-06T08:52:39;99107.20;;;21.70
69007;BMP180;56061;51.748;19.620;2022-07-06T08:55:08;99112.80;;;21.72
69007;BMP180;56061;51.748;19.620;2022-07-06T08:57:39;99109.80;;;21.70
69007;BMP180;56061;51.748;19.620;2022-07-06T09:00:08;99112.20;;;21.70
69007;BMP180;56061;51.748;19.620;2022-07-06T09:02:42;99114.60;;;21.90
69007;BMP180;56061;51.748;19.620;2022-07-06T09:05:14;99117.00;;;22.10
69007;BMP180;56061;51.748;19.620;2022-07-06T09:07:49;99118.20;;;22.38
69007;BMP180;56061;51.748;19.620;2022-07-06T09:10:35;99115.40;;;22.66
69007;BMP180;56061;51.748;19.620;2022-07-06T09:13:07;99112.80;;;22.80
69007;BMP180;56061;51.748;19.620;2022-07-06T09:15:38;99116.60;;;22.70
69007;BMP180;56061;51.748;19.620;2022-07-06T09:18:07;99119.80;;;22.70
69007;BMP180;56061;51.748;19.620;2022-07-06T09:20:37;99112.60;;;22.70
69007;BMP180;56061;51.748;19.620;2022-07-06T09:23:05;99113.80;;;22.80
69007;BMP180;56061;51.748;19.620;2022-07-06T09:25:54;99110.60;;;22.80
69007;BMP180;56061;51.748;19.620;2022-07-06T09:28:21;99113.60;;;22.80
69007;BMP180;56061;51.748;19.620;2022-07-06T09:31:07;99115.00;;;22.90
69007;BMP180;56061;51.748;19.620;2022-07-06T09:34:06;99115.20;;;22.92
69007;BMP180;56061;51.748;19.620;2022-07-06T09:36:46;99117.40;;;23.20
69007;BMP180;56061;51.748;19.620;2022-07-06T09:39:28;99119.40;;;23.30
69007;BMP180;56061;51.748;19.620;2022-07-06T09:42:16;99115.60;;;23.30
69007;BMP180;56061;51.748;19.620;2022-07-06T09:44:43;99113.60;;;23.30
69007;BMP180;56061;51.748;19.620;2022-07-06T09:47:18;99110.80;;;23.30
69007;BMP180;56061;51.748;19.620;2022-07-06T09:49:55;99116.40;;;23.30
69007;BMP180;56061;51.748;19.620;2022-07-06T09:52:23;99122.80;;;23.30
69007;BMP180;56061;51.748;19.620;2022-07-06T09:54:49;99120.40;;;23.40
69007;BMP180;56061;51.748;19.620;2022-07-06T09:57:24;99118.40;;;23.30
69007;BMP180;56061;51.748;19.620;2022-07-06T09:59:51;99119.40;;;23.38
69007;BMP180;56061;51.748;19.620;2022-07-06T10:02:20;99126.20;;;23.50
69007;BMP180;56061;51.748;19.620;2022-07-06T10:04:49;99124.60;;;23.60
69007;BMP180;56061;51.748;19.620;2022-07-06T10:07:34;99128.80;;;23.60
69007;BMP180;56061;51.748;19.620;2022-07-06T10:10:02;99133.00;;;23.60
69007;BMP180;56061;51.748;19.620;2022-07-06T10:12:32;99130.20;;;23.50
69007;BMP180;56061;51.748;19.620;2022-07-06T10:14:59;99129.40;;;23.50
69007;BMP180;56061;51.748;19.620;2022-07-06T10:17:27;99126.40;;;23.60
69007;BMP180;56061;51.748;19.620;2022-07-06T10:20:01;99127.00;;;23.70
69007;BMP180;56061;51.748;19.620;2022-07-06T10:22:40;99117.60;;;23.74
69007;BMP180;56061;51.748;19.620;2022-07-06T10:25:07;99118.80;;;23.80
69007;BMP180;56061;51.748;19.620;2022-07-06T10:27:34;99121.00;;;23.70
69007;BMP180;56061;51.748;19.620;2022-07-06T10:30:10;99127.40;;;23.68
69007;BMP180;56061;51.748;19.620;2022-07-06T10:32:49;99123.40;;;23.60
69007;BMP180;56061;51.748;19.620;2022-07-06T10:35:19;99121.80;;;23.60
69007;BMP180;56061;51.748;19.620;2022-07-06T10:38:07;99121.60;;;23.60
69007;BMP180;56061;51.748;19.620;2022-07-06T10:40:39;99120.40;;;23.90
69007;BMP180;56061;51.748;19.620;2022-07-06T10:43:42;99120.40;;;24.06
69007;BMP180;56061;51.748;19.620;2022-07-06T10:46:20;99118.60;;;24.10
69007;BMP180;56061;51.748;19.620;2022-07-06T10:48:48;99114.40;;;24.10
69007;BMP180;56061;51.748;19.620;2022-07-06T10:51:28;99110.00;;;24.10
69007;BMP180;56061;51.748;19.620;2022-07-06T10:54:04;99117.00;;;24.10
69007;BMP180;56061;51.748;19.620;2022-07-06T10:56:40;99114.20;;;24.10
69007;BMP180;56061;51.748;19.620;2022-07-06T10:59:29;99118.40;;;24.10
69007;BMP180;56061;51.748;19.620;2022-07-06T11:02:17;99118.80;;;24.00
69007;BMP180;56061;51.748;19.620;2022-07-06T11:04:59;99119.80;;;23.80
69007;BMP180;56061;51.748;19.620;2022-07-06T11:07:26;99121.80;;;23.72
69007;BMP180;56061;51.748;19.620;2022-07-06T11:10:01;99122.60;;;23.96
69007;BMP180;56061;51.748;19.620;2022-07-06T11:12:28;99125.20;;;24.20
69007;BMP180;56061;51.748;19.620;2022-07-06T11:15:09;99122.40;;;24.40
69007;BMP180;56061;51.748;19.620;2022-07-06T11:17:36;99134.40;;;24.60
69007;BMP180;56061;51.748;19.620;2022-07-06T11:20:11;99125.20;;;24.54
69007;BMP180;56061;51.748;19.620;2022-07-06T11:22:38;99125.60;;;24.50
69007;BMP180;56061;51.748;19.620;2022-07-06T11:25:07;99135.80;;;24.58
69007;BMP180;56061;51.748;19.620;2022-07-06T11:27:42;99129.60;;;24.56
69007;BMP180;56061;51.748;19.620;2022-07-06T11:30:11;99130.60;;;24.60
69007;BMP180;56061;51.748;19.620;2022-07-06T11:32:38;99135.80;;;24.70
69007;BMP180;56061;51.748;19.620;2022-07-06T11:35:05;99129.20;;;24.80
69007;BMP180;56061;51.748;19.620;2022-07-06T11:37:41;99130.40;;;24.90
69007;BMP180;56061;51.748;19.620;2022-07-06T11:40:14;99128.20;;;24.80
69007;BMP180;56061;51.748;19.620;2022-07-06T11:42:54;99118.40;;;24.90
69007;BMP180;56061;51.748;19.620;2022-07-06T11:45:34;99116.60;;;25.14
69007;BMP180;56061;51.748;19.620;2022-07-06T11:48:12;99112.60;;;25.20
69007;BMP180;56061;51.748;19.620;2022-07-06T11:50:39;99118.60;;;25.20
69007;BMP180;56061;51.748;19.620;2022-07-06T11:53:06;99119.60;;;25.10
69007;BMP180;56061;51.748;19.620;2022-07-06T11:55:36;99121.60;;;25.00
69007;BMP180;56061;51.748;19.620;2022-07-06T11:58:10;99125.20;;;25.00
69007;BMP180;56061;51.748;19.620;2022-07-06T12:01:13;99121.20;;;25.12
69007;BMP180;56061;51.748;19.620;2022-07-06T12:03:46;99122.00;;;25.30
69007;BMP180;56061;51.748;19.620;2022-07-06T12:06:17;99121.20;;;25.34
69007;BMP180;56061;51.748;19.620;2022-07-06T12:08:47;99118.40;;;25.50
69007;BMP180;56061;51.748;19.620;2022-07-06T12:11:35;99123.80;;;25.70
69007;BMP180;56061;51.748;19.620;2022-07-06T12:14:17;99131.00;;;25.70
69007;BMP180;56061;51.748;19.620;2022-07-06T12:16:46;99125.40;;;25.80
69007;BMP180;56061;51.748;19.620;2022-07-06T12:19:22;99126.80;;;25.80
69007;BMP180;56061;51.748;19.620;2022-07-06T12:21:56;99129.40;;;25.70
69007;BMP180;56061;51.748;19.620;2022-07-06T12:24:26;99130.00;;;25.46
69007;BMP180;56061;51.748;19.620;2022-07-06T12:27:19;99130.60;;;25.20
69007;BMP180;56061;51.748;19.620;2022-07-06T12:29:50;99136.60;;;24.90
69007;BMP180;56061;51.748;19.620;2022-07-06T12:32:21;99137.60;;;24.60
69007;BMP180;56061;51.748;19.620;2022-07-06T12:35:10;99142.80;;;24.20
69007;BMP180;56061;51.748;19.620;2022-07-06T12:37:55;99139.40;;;23.86
69007;BMP180;56061;51.748;19.620;2022-07-06T12:40:26;99146.60;;;23.60
69007;BMP180;56061;51.748;19.620;2022-07-06T12:43:37;99146.20;;;23.20
69007;BMP180;56061;51.748;19.620;2022-07-06T12:49:03;99152.40;;;22.64
69007;BMP180;56061;51.748;19.620;2022-07-06T12:54:54;99151.40;;;22.00
69007;BMP180;56061;51.748;19.620;2022-07-06T12:57:48;99153.80;;;21.82
69007;BMP180;56061;51.748;19.620;2022-07-06T13:00:17;99156.00;;;21.50
69007;BMP180;56061;51.748;19.620;2022-07-06T13:02:47;99158.40;;;21.22
69007;BMP180;56061;51.748;19.620;2022-07-06T13:05:34;99162.20;;;20.80
69007;BMP180;56061;51.748;19.620;2022-07-06T13:08:14;99197.60;;;20.56
69007;BMP180;56061;51.748;19.620;2022-07-06T13:10:41;99204.40;;;19.82
69007;BMP180;56061;51.748;19.620;2022-07-06T13:13:09;99206.80;;;19.08
69007;BMP180;56061;51.748;19.620;2022-07-06T13:15:43;99219.60;;;18.46
69007;BMP180;56061;51.748;19.620;2022-07-06T13:18:19;99227.20;;;18.00
69007;BMP180;56061;51.748;19.620;2022-07-06T13:20:46;99224.20;;;17.80
69007;BMP180;56061;51.748;19.620;2022-07-06T13:23:12;99228.40;;;17.66
69007;BMP180;56061;51.748;19.620;2022-07-06T13:25:51;99225.20;;;17.60
69007;BMP180;56061;51.748;19.620;2022-07-06T13:28:30;99226.20;;;17.60
69007;BMP180;56061;51.748;19.620;2022-07-06T13:30:57;99222.60;;;17.70
69007;BMP180;56061;51.748;19.620;2022-07-06T13:33:23;99226.00;;;17.80
69007;BMP180;56061;51.748;19.620;2022-07-06T13:35:51;99222.80;;;17.92
69007;BMP180;56061;51.748;19.620;2022-07-06T13:38:21;99224.20;;;18.20
69007;BMP180;56061;51.748;19.620;2022-07-06T13:40:51;99219.80;;;18.60
69007;BMP180;56061;51.748;19.620;2022-07-06T13:43:20;99214.20;;;19.24
69007;BMP180;56061;51.748;19.620;2022-07-06T13:45:48;99216.80;;;19.70
69007;BMP180;56061;51.748;19.620;2022-07-06T13:48:15;99210.80;;;20.00
69007;BMP180;56061;51.748;19.620;2022-07-06T13:50:48;99216.40;;;20.00
69007;BMP180;56061;51.748;19.620;2022-07-06T13:53:16;99218.60;;;20.00
69007;BMP180;56061;51.748;19.620;2022-07-06T13:55:43;99213.00;;;20.00
69007;BMP180;56061;51.748;19.620;2022-07-06T13:58:10;99215.20;;;20.00
69007;BMP180;56061;51.748;19.620;2022-07-06T14:00:43;99211.40;;;20.10
69007;BMP180;56061;51.748;19.620;2022-07-06T14:03:10;99222.60;;;20.20
69007;BMP180;56061;51.748;19.620;2022-07-06T14:05:37;99220.20;;;20.10
69007;BMP180;56061;51.748;19.620;2022-07-06T14:08:04;99215.80;;;20.00
69007;BMP180;56061;51.748;19.620;2022-07-06T14:10:31;99226.00;;;19.88
69007;BMP180;56061;51.748;19.620;2022-07-06T14:13:01;99215.20;;;19.70
69007;BMP180;56061;51.748;19.620;2022-07-06T14:15:28;99214.20;;;19.70
69007;BMP180;56061;51.748;19.620;2022-07-06T14:18:04;99218.80;;;19.70
69007;BMP180;56061;51.748;19.620;2022-07-06T14:20:31;99213.00;;;19.70
69007;BMP180;56061;51.748;19.620;2022-07-06T14:22:57;99212.20;;;19.70
69007;BMP180;56061;51.748;19.620;2022-07-06T14:25:24;99212.80;;;19.72